createdAt,value
2023-03-30T00:01:21.387Z,100028.97
2023-03-30T00:04:11.544Z,100026.72
2023-03-30T00:07:00.408Z,100031.41
2023-03-30T00:09:51.469Z,100036.75
2023-03-30T00:12:43.583Z,100028.13
2023-03-30T00:15:32.355Z,100023.22
2023-03-30T00:18:21.324Z,100014.19
2023-03-30T00:21:11.146Z,99992.38
2023-03-30T00:23:59.935Z,99962.00
2023-03-30T00:26:48.740Z,99927.91
2023-03-30T00:29:38.743Z,99918.25
2023-03-30T00:32:27.370Z,99918.88
2023-03-30T00:35:16.051Z,99927.91
2023-03-30T00:38:05.916Z,99931.81
2023-03-30T00:40:56.005Z,99930.56
2023-03-30T00:43:58.259Z,99935.31
2023-03-30T00:46:48.386Z,99935.72
2023-03-30T00:49:37.113Z,99922.56
2023-03-30T00:52:27.959Z,99925.06
2023-03-30T00:55:16.665Z,99911.53
2023-03-30T00:58:06.658Z,99919.72
2023-03-30T01:00:55.448Z,99917.66
2023-03-30T01:03:48.071Z,99919.91
2023-03-30T01:06:40.338Z,99927.13
2023-03-30T01:09:29.284Z,99926.50
2023-03-30T01:12:17.860Z,99914.41
2023-03-30T01:15:08.834Z,99890.16
2023-03-30T01:18:19.650Z,99870.84
2023-03-30T01:21:46.342Z,99864.28
2023-03-30T01:25:06.440Z,99835.53
2023-03-30T01:28:13.367Z,99828.53
2023-03-30T01:31:31.876Z,99824.41
2023-03-30T01:34:48.099Z,99822.16
2023-03-30T01:37:54.631Z,99826.91
2023-03-30T01:40:47.495Z,99816.22
2023-03-30T01:43:39.932Z,99808.22
2023-03-30T01:46:30.542Z,99810.88
2023-03-30T01:49:24.277Z,99809.66
2023-03-30T01:52:17.722Z,99819.72
2023-03-30T01:55:10.901Z,99833.44
2023-03-30T01:58:03.918Z,99824.84
2023-03-30T02:00:52.954Z,99817.69
2023-03-30T02:03:43.784Z,99816.66
2023-03-30T02:06:39.853Z,99827.34
2023-03-30T02:09:31.611Z,99810.50
2023-03-30T02:12:21.194Z,99820.38
2023-03-30T02:15:14.027Z,99819.94
2023-03-30T02:18:03.107Z,99809.69
2023-03-30T02:20:51.817Z,99805.16
2023-03-30T02:23:44.196Z,99792.03
2023-03-30T02:26:34.050Z,99791.19
2023-03-30T02:29:23.406Z,99785.47
2023-03-30T02:32:18.869Z,99784.63
2023-03-30T02:35:22.246Z,99765.34
2023-03-30T02:38:55.075Z,99768.84
2023-03-30T02:42:03.985Z,99778.06
2023-03-30T02:44:57.778Z,99783.81
2023-03-30T02:47:58.738Z,99771.06
2023-03-30T02:50:50.492Z,99782.63
2023-03-30T02:53:45.377Z,99757.13
2023-03-30T02:56:38.657Z,99757.34
2023-03-30T02:59:30.476Z,99752.22
2023-03-30T03:02:21.972Z,99743.63
2023-03-30T03:05:14.782Z,99738.03
2023-03-30T03:08:03.410Z,99725.53
2023-03-30T03:10:52.260Z,99709.50
2023-03-30T03:13:42.276Z,99704.81
2023-03-30T03:16:30.948Z,99700.06
2023-03-30T03:19:19.558Z,99701.94
2023-03-30T03:22:09.535Z,99712.03
2023-03-30T03:24:58.181Z,99708.31
2023-03-30T03:27:47.267Z,99704.38
2023-03-30T03:30:35.994Z,99703.34
2023-03-30T03:33:24.871Z,99694.75
2023-03-30T03:36:13.540Z,99677.91
2023-03-30T03:39:04.479Z,99672.94
2023-03-30T03:41:53.167Z,99664.97
2023-03-30T03:44:41.836Z,99663.94
2023-03-30T03:47:30.471Z,99669.47
2023-03-30T03:50:19.295Z,99676.03
2023-03-30T03:53:07.989Z,99672.78
2023-03-30T03:55:58.038Z,99681.19
2023-03-30T03:58:46.715Z,99678.31
2023-03-30T04:01:35.733Z,99688.97
2023-03-30T04:04:24.540Z,99677.91
2023-03-30T04:07:13.585Z,99673.78
2023-03-30T04:10:02.201Z,99657.78
2023-03-30T04:12:52.376Z,99658.63
2023-03-30T04:15:41.155Z,99669.72
2023-03-30T04:18:31.494Z,99678.16
2023-03-30T04:21:20.310Z,99672.44
2023-03-30T04:24:12.149Z,99657.91
2023-03-30T04:27:00.768Z,99662.19
2023-03-30T04:29:50.748Z,99659.94
2023-03-30T04:32:41.160Z,99660.31
2023-03-30T04:35:31.638Z,99674.50
2023-03-30T04:38:22.634Z,99687.84
2023-03-30T04:41:14.166Z,99698.53
2023-03-30T04:44:04.359Z,99691.13
2023-03-30T04:46:54.550Z,99675.97
2023-03-30T04:49:43.291Z,99669.41
2023-03-30T04:52:31.972Z,99665.72
2023-03-30T04:55:20.690Z,99675.94
2023-03-30T04:58:10.667Z,99681.31
2023-03-30T05:01:03.475Z,99694.38
2023-03-30T05:03:53.673Z,99689.44
2023-03-30T05:06:44.189Z,99672.19
2023-03-30T05:09:32.787Z,99675.03
2023-03-30T05:12:21.760Z,99666.41
2023-03-30T05:15:11.107Z,99657.81
2023-03-30T05:18:01.645Z,99663.16
2023-03-30T05:20:52.338Z,99647.28
2023-03-30T05:23:42.918Z,99656.78
2023-03-30T05:26:31.794Z,99664.78
2023-03-30T05:29:20.433Z,99653.31
2023-03-30T05:32:09.278Z,99661.91
2023-03-30T05:34:57.962Z,99655.97
2023-03-30T05:37:50.399Z,99644.63
2023-03-30T05:40:39.091Z,99647.53
2023-03-30T05:43:27.768Z,99645.91
2023-03-30T05:46:16.605Z,99632.38
2023-03-30T05:49:05.278Z,99628.47
2023-03-30T05:51:53.995Z,99625.34
2023-03-30T05:54:43.940Z,99625.34
2023-03-30T05:57:33.177Z,99632.75
2023-03-30T06:00:23.196Z,99648.16
2023-03-30T06:03:12.400Z,99647.13
2023-03-30T06:06:03.685Z,99648.78
2023-03-30T06:08:52.361Z,99670.13
2023-03-30T06:11:42.357Z,99669.31
2023-03-30T06:14:31.141Z,99655.75
2023-03-30T06:17:19.861Z,99659.44
2023-03-30T06:20:12.425Z,99654.53
2023-03-30T06:23:01.687Z,99663.34
2023-03-30T06:25:53.248Z,99659.69
2023-03-30T06:28:43.615Z,99652.56
2023-03-30T06:31:32.690Z,99653.00
2023-03-30T06:34:21.516Z,99657.47
2023-03-30T06:37:10.266Z,99647.22
2023-03-30T06:39:59.148Z,99643.09
2023-03-30T06:42:48.049Z,99639.81
2023-03-30T06:45:38.139Z,99629.16
2023-03-30T06:48:26.908Z,99614.38
2023-03-30T06:51:15.656Z,99612.34
2023-03-30T06:54:04.423Z,99616.41
2023-03-30T06:56:53.713Z,99608.59
2023-03-30T06:59:42.452Z,99595.84
2023-03-30T07:02:33.127Z,99594.19
2023-03-30T07:05:24.876Z,99597.47
2023-03-30T07:08:15.741Z,99585.91
2023-03-30T07:11:05.045Z,99578.94
2023-03-30T07:13:56.260Z,99580.19
2023-03-30T07:16:45.059Z,99564.78
2023-03-30T07:19:35.101Z,99570.69
2023-03-30T07:22:23.872Z,99581.59
2023-03-30T07:25:12.528Z,99578.56
2023-03-30T07:28:02.159Z,99567.66
2023-03-30T07:30:50.935Z,99563.72
2023-03-30T07:33:39.959Z,99556.78
2023-03-30T07:36:30.012Z,99539.94
2023-03-30T07:39:18.804Z,99532.97
2023-03-30T07:42:07.803Z,99536.69
2023-03-30T07:44:56.365Z,99535.88
2023-03-30T07:47:45.097Z,99537.28
2023-03-30T07:50:33.877Z,99542.00
2023-03-30T07:53:23.961Z,99549.19
2023-03-30T07:56:12.613Z,99548.16
2023-03-30T07:59:01.923Z,99544.44
2023-03-30T08:01:56.881Z,99548.16
2023-03-30T08:04:45.884Z,99547.75
2023-03-30T08:07:35.451Z,99539.94
2023-03-30T08:10:25.551Z,99536.44
2023-03-30T08:13:14.853Z,99524.28
2023-03-30T08:16:03.455Z,99520.75
2023-03-30T08:18:54.903Z,99507.81
2023-03-30T08:21:43.540Z,99511.06
2023-03-30T08:24:32.223Z,99509.03
2023-03-30T08:27:22.474Z,99501.44
2023-03-30T08:30:13.263Z,99503.53
2023-03-30T08:33:02.123Z,99505.44
2023-03-30T08:35:51.507Z,99507.88
2023-03-30T08:38:40.571Z,99502.13
2023-03-30T08:41:47.965Z,99524.72
2023-03-30T08:44:39.181Z,99520.13
2023-03-30T08:47:33.497Z,99517.31
2023-03-30T08:50:29.408Z,99516.47
2023-03-30T08:53:18.138Z,99522.22
2023-03-30T08:56:11.077Z,99522.78
2023-03-30T08:59:07.413Z,99522.50
2023-03-30T09:02:00.432Z,99525.31
2023-03-30T09:05:02.130Z,99535.41
2023-03-30T09:07:56.180Z,99549.34
2023-03-30T09:10:47.552Z,99552.03
2023-03-30T09:13:38.004Z,99558.41
2023-03-30T09:16:34.538Z,99552.25
2023-03-30T09:19:29.687Z,99551.19
2023-03-30T09:22:20.246Z,99557.22
2023-03-30T09:25:15.831Z,99563.75
2023-03-30T09:28:10.159Z,99567.22
2023-03-30T09:31:02.824Z,99578.72
2023-03-30T09:33:58.915Z,99585.16
2023-03-30T09:36:53.166Z,99600.56
2023-03-30T09:39:42.273Z,99591.41
2023-03-30T09:42:37.095Z,99599.78
2023-03-30T09:45:29.335Z,99598.75
2023-03-30T09:48:19.014Z,99585.31
2023-03-30T09:51:19.633Z,99595.75
2023-03-30T09:54:15.664Z,99595.50
2023-03-30T09:57:04.264Z,99596.28
2023-03-30T09:59:55.752Z,99591.75
2023-03-30T10:02:57.442Z,99590.50
2023-03-30T10:05:46.237Z,99600.22
2023-03-30T10:08:36.470Z,99604.09
2023-03-30T10:11:37.583Z,99599.94
2023-03-30T10:14:31.584Z,99602.81
2023-03-30T10:17:21.420Z,99603.25
2023-03-30T10:20:19.324Z,99599.53
2023-03-30T10:23:15.880Z,99597.06
2023-03-30T10:26:05.666Z,99588.41
2023-03-30T10:28:58.013Z,99578.78
2023-03-30T10:31:48.636Z,99558.09
2023-03-30T10:34:39.290Z,99556.66
2023-03-30T10:37:32.531Z,99540.81
2023-03-30T10:40:23.524Z,99555.81
2023-03-30T10:43:15.592Z,99551.50
2023-03-30T10:46:20.178Z,99569.16
2023-03-30T10:49:14.774Z,99581.59
2023-03-30T10:52:10.803Z,99592.72
2023-03-30T10:55:04.222Z,99594.34
2023-03-30T10:57:58.553Z,99581.91
2023-03-30T11:00:56.950Z,99573.25
2023-03-30T11:03:49.448Z,99568.25
2023-03-30T11:06:41.810Z,99546.16
2023-03-30T11:09:34.609Z,99533.41
2023-03-30T11:12:24.648Z,99546.16
2023-03-30T11:15:18.053Z,99577.78
2023-03-30T11:18:12.199Z,99581.44
2023-03-30T11:21:03.401Z,99605.47
2023-03-30T11:23:55.058Z,99602.75
2023-03-30T11:26:47.179Z,99585.16
2023-03-30T11:29:38.876Z,99599.94
2023-03-30T11:32:32.366Z,99594.75
2023-03-30T11:35:27.101Z,99586.75
2023-03-30T11:38:21.389Z,99576.13
2023-03-30T11:41:15.351Z,99564.47
2023-03-30T11:44:04.191Z,99551.31
2023-03-30T11:46:59.968Z,99555.63
2023-03-30T11:49:58.279Z,99563.03
2023-03-30T11:52:55.518Z,99542.50
2023-03-30T11:56:01.985Z,99540.81
2023-03-30T11:59:00.332Z,99534.72
2023-03-30T12:02:06.851Z,99525.84
2023-03-30T12:04:59.396Z,99525.66
2023-03-30T12:07:53.995Z,99513.81
2023-03-30T12:10:46.277Z,99512.19
2023-03-30T12:13:50.285Z,99507.00
2023-03-30T12:16:44.653Z,99489.59
2023-03-30T12:19:52.957Z,99475.56
2023-03-30T12:22:48.574Z,99474.38
2023-03-30T12:25:54.386Z,99462.53
2023-03-30T12:32:07.649Z,99446.06
2023-03-30T12:34:56.892Z,99441.19
2023-03-30T12:37:49.384Z,99444.00
2023-03-30T12:40:38.167Z,99439.53
2023-03-30T12:43:34.517Z,99435.84
2023-03-30T12:46:28.038Z,99435.06
2023-03-30T12:49:24.257Z,99428.88
2023-03-30T12:52:16.007Z,99417.00
2023-03-30T12:55:17.689Z,99417.81
2023-03-30T12:58:18.603Z,99418.63
2023-03-30T13:01:28.352Z,99420.25
2023-03-30T13:04:19.578Z,99425.16
2023-03-30T13:07:10.563Z,99420.25
2023-03-30T13:10:02.780Z,99455.91
2023-03-30T13:12:52.837Z,99430.78
2023-03-30T13:15:44.105Z,99419.06
2023-03-30T13:18:37.271Z,99423.53
2023-03-30T13:21:26.825Z,99441.56
2023-03-30T13:24:29.416Z,99425.91
2023-03-30T13:27:29.641Z,99408.44
2023-03-30T13:30:18.827Z,99419.69
2023-03-30T13:33:15.528Z,99422.81
2023-03-30T13:36:11.088Z,99422.97
2023-03-30T13:39:05.436Z,99427.13
2023-03-30T13:42:03.275Z,99419.63
2023-03-30T13:44:58.356Z,99416.44
2023-03-30T13:48:02.738Z,99413.16
2023-03-30T13:50:54.091Z,99408.72
2023-03-30T13:53:48.489Z,99422.63
2023-03-30T13:56:39.465Z,99404.47
2023-03-30T13:59:29.752Z,99401.16
2023-03-30T14:02:19.647Z,99403.69
2023-03-30T14:05:21.651Z,99391.44
2023-03-30T14:08:11.391Z,99394.38
2023-03-30T14:11:02.720Z,99391.69
2023-03-30T14:13:53.369Z,99384.47
2023-03-30T14:16:42.762Z,99387.06
2023-03-30T14:19:35.333Z,99392.56
2023-03-30T14:22:27.366Z,99383.81
2023-03-30T14:25:28.699Z,99369.47
2023-03-30T14:28:21.001Z,99373.50
2023-03-30T14:31:19.547Z,99367.16
2023-03-30T14:34:24.311Z,99369.97
2023-03-30T14:37:13.428Z,99360.91
2023-03-30T14:40:02.156Z,99358.66
2023-03-30T14:42:50.743Z,99351.81
2023-03-30T14:45:41.549Z,99348.22
2023-03-30T14:48:32.723Z,99355.06
2023-03-30T14:51:25.266Z,99341.88
2023-03-30T14:54:16.739Z,99346.78
2023-03-30T14:57:07.609Z,99343.84
2023-03-30T14:59:59.359Z,99345.94
2023-03-30T15:02:51.782Z,99337.25
2023-03-30T15:05:42.731Z,99346.59
2023-03-30T15:08:33.804Z,99337.56
2023-03-30T15:11:24.332Z,99347.50
2023-03-30T15:14:17.159Z,99351.78
2023-03-30T15:17:11.100Z,99351.78
2023-03-30T15:20:02.788Z,99367.22
2023-03-30T15:22:53.439Z,99365.28
2023-03-30T15:25:42.164Z,99346.78
2023-03-30T15:28:33.062Z,99338.75
2023-03-30T15:31:22.044Z,99333.63
2023-03-30T15:34:16.377Z,99346.03
2023-03-30T15:37:22.746Z,99346.78
2023-03-30T15:40:32.401Z,99355.00
2023-03-30T15:43:22.311Z,99393.56
2023-03-30T15:46:14.843Z,99440.34
2023-03-30T15:49:03.814Z,99447.38
2023-03-30T15:51:53.731Z,99470.91
2023-03-30T15:54:46.145Z,99477.59
2023-03-30T15:57:35.293Z,99484.47
2023-03-30T16:00:25.953Z,99498.88
2023-03-30T16:03:14.794Z,99486.56
2023-03-30T16:06:03.429Z,99492.09
2023-03-30T16:08:52.068Z,99488.19
2023-03-30T16:11:42.172Z,99483.28
2023-03-30T16:14:32.009Z,99499.56
2023-03-30T16:17:20.794Z,99504.38
2023-03-30T16:20:16.655Z,99506.41
2023-03-30T16:23:05.529Z,99483.88
2023-03-30T16:25:54.146Z,99489.78
2023-03-30T16:28:44.560Z,99472.75
2023-03-30T16:31:35.387Z,99472.31
2023-03-30T16:34:24.095Z,99467.41
2023-03-30T16:37:12.926Z,99471.56
2023-03-30T16:40:01.944Z,99484.72
2023-03-30T16:42:50.619Z,99485.59
2023-03-30T16:45:40.850Z,99481.72
2023-03-30T16:48:29.473Z,99481.97
2023-03-30T16:51:19.806Z,99497.47
2023-03-30T16:54:19.529Z,99488.03
2023-03-30T16:57:12.535Z,99489.91
2023-03-30T17:00:01.151Z,99492.97
2023-03-30T17:02:51.698Z,99477.75
2023-03-30T17:05:40.993Z,99483.53
2023-03-30T17:08:30.539Z,99489.66
2023-03-30T17:11:19.484Z,99492.56
2023-03-30T17:14:08.140Z,99499.53
2023-03-30T17:16:56.878Z,99499.22
2023-03-30T17:19:46.990Z,99505.31
2023-03-30T17:22:35.562Z,99518.22
2023-03-30T17:25:26.456Z,99514.50
2023-03-30T17:28:21.906Z,99514.34
2023-03-30T17:31:16.575Z,99509.88
2023-03-30T17:34:06.656Z,99516.84
2023-03-30T17:36:56.593Z,99510.75
2023-03-30T17:39:45.263Z,99505.84
2023-03-30T17:42:33.953Z,99505.84
2023-03-30T17:45:24.744Z,99504.63
2023-03-30T17:48:16.335Z,99508.28
2023-03-30T17:51:05.141Z,99503.75
2023-03-30T17:53:55.283Z,99502.19
2023-03-30T17:56:43.874Z,99500.94
2023-03-30T17:59:32.517Z,99499.75
2023-03-30T18:02:21.196Z,99500.59
2023-03-30T18:05:10.755Z,99506.31
2023-03-30T18:07:59.598Z,99497.72
2023-03-30T18:10:51.660Z,99504.69
2023-03-30T18:13:40.381Z,99503.25
2023-03-30T18:16:29.012Z,99513.94
2023-03-30T18:19:17.591Z,99504.69
2023-03-30T18:22:06.573Z,99512.09
2023-03-30T18:24:55.261Z,99518.03
2023-03-30T18:27:46.455Z,99519.88
2023-03-30T18:30:37.965Z,99540.41
2023-03-30T18:33:27.096Z,99540.41
2023-03-30T18:36:15.959Z,99538.75
2023-03-30T18:39:04.853Z,99543.69
2023-03-30T18:41:53.489Z,99551.84
2023-03-30T18:44:43.481Z,99552.28
2023-03-30T18:47:32.134Z,99554.91
2023-03-30T18:50:23.698Z,99557.56
2023-03-30T18:53:13.928Z,99554.34
2023-03-30T18:56:03.465Z,99575.25
2023-03-30T18:58:52.389Z,99578.53
2023-03-30T19:01:42.425Z,99583.03
2023-03-30T19:04:31.080Z,99583.59
2023-03-30T19:07:19.688Z,99586.72
2023-03-30T19:10:11.598Z,99581.09
2023-03-30T19:13:00.399Z,99584.13
2023-03-30T19:15:50.251Z,99586.75
2023-03-30T19:18:40.398Z,99598.41
2023-03-30T19:21:29.069Z,99591.41
2023-03-30T19:24:17.694Z,99597.22
2023-03-30T19:27:07.612Z,99605.38
2023-03-30T19:29:57.388Z,99599.00
2023-03-30T19:32:46.717Z,99599.25
2023-03-30T19:35:36.885Z,99593.25
2023-03-30T19:38:25.591Z,99610.47
2023-03-30T19:41:14.142Z,99607.78
2023-03-30T19:44:02.788Z,99612.09
2023-03-30T19:46:51.399Z,99618.47
2023-03-30T19:49:40.211Z,99616.84
2023-03-30T19:52:30.241Z,99613.47
2023-03-30T19:55:19.745Z,99620.50
2023-03-30T19:58:08.444Z,99611.41
2023-03-30T20:00:57.417Z,99604.28
2023-03-30T20:03:46.010Z,99602.84
2023-03-30T20:06:35.904Z,99606.31
2023-03-30T20:09:27.572Z,99620.53
2023-03-30T20:12:16.636Z,99622.56
2023-03-30T20:15:06.507Z,99628.09
2023-03-30T20:17:56.635Z,99619.94
2023-03-30T20:20:45.473Z,99632.25
2023-03-30T20:23:34.081Z,99619.41
2023-03-30T20:26:24.042Z,99622.75
2023-03-30T20:29:12.744Z,99617.41
2023-03-30T20:32:01.419Z,99621.91
2023-03-30T20:34:50.142Z,99619.47
2023-03-30T20:37:38.758Z,99633.47
2023-03-30T20:40:27.382Z,99629.75
2023-03-30T20:43:17.351Z,99630.16
2023-03-30T20:46:09.684Z,99635.84
2023-03-30T20:49:02.098Z,99631.50
2023-03-30T20:51:51.716Z,99644.81
2023-03-30T20:54:41.019Z,99643.81
2023-03-30T20:57:29.790Z,99642.81
2023-03-30T21:00:21.275Z,99638.53
2023-03-30T21:03:10.003Z,99640.22
2023-03-30T21:06:02.817Z,99651.03
2023-03-30T21:08:52.102Z,99648.50
2023-03-30T21:11:40.942Z,99633.25
2023-03-30T21:14:29.840Z,99638.63
2023-03-30T21:17:19.813Z,99635.28
2023-03-30T21:20:11.002Z,99639.84
2023-03-30T21:22:59.608Z,99631.22
2023-03-30T21:25:48.246Z,99638.72
2023-03-30T21:28:37.935Z,99630.84
2023-03-30T21:31:26.625Z,99634.06
2023-03-30T21:34:18.650Z,99634.88
2023-03-30T21:37:07.360Z,99634.09
2023-03-30T21:39:56.158Z,99621.78
2023-03-30T21:42:45.052Z,99623.44
2023-03-30T21:45:33.664Z,99626.53
2023-03-30T21:48:22.357Z,99625.47
2023-03-30T21:51:14.044Z,99626.91
2023-03-30T21:54:02.722Z,99612.50
2023-03-30T21:56:51.423Z,99615.38
2023-03-30T21:59:40.153Z,99609.56
2023-03-30T22:02:28.923Z,99610.53
2023-03-30T22:05:17.740Z,99609.78
2023-03-30T22:08:08.224Z,99607.94
2023-03-30T22:10:58.309Z,99602.47
2023-03-30T22:13:48.505Z,99606.81
2023-03-30T22:16:37.657Z,99594.41
2023-03-30T22:19:26.655Z,99596.09
2023-03-30T22:22:15.227Z,99595.06
2023-03-30T22:25:05.939Z,99593.41
2023-03-30T22:27:55.170Z,99574.16
2023-03-30T22:30:43.977Z,99578.66
2023-03-30T22:33:32.539Z,99581.56
2023-03-30T22:36:22.618Z,99579.91
2023-03-30T22:39:11.238Z,99578.69
2023-03-30T22:42:01.218Z,99581.59
2023-03-30T22:44:50.590Z,99573.81
2023-03-30T22:47:39.241Z,99569.66
2023-03-30T22:50:29.748Z,99560.66
2023-03-30T22:53:18.467Z,99565.75
2023-03-30T22:56:08.039Z,99563.72
2023-03-30T22:58:58.635Z,99556.38
2023-03-30T23:01:47.466Z,99557.25
2023-03-30T23:04:36.250Z,99560.22
2023-03-30T23:07:24.901Z,99550.34
2023-03-30T23:10:16.048Z,99549.94
2023-03-30T23:13:05.118Z,99549.09
2023-03-30T23:15:56.226Z,99551.59
2023-03-30T23:18:44.948Z,99542.50
2023-03-30T23:21:35.814Z,99541.25
2023-03-30T23:24:24.957Z,99535.91
2023-03-30T23:27:13.488Z,99542.72
2023-03-30T23:30:02.197Z,99544.78
2023-03-30T23:32:52.301Z,99545.13
2023-03-30T23:35:42.145Z,99545.78
2023-03-30T23:38:31.801Z,99549.47
2023-03-30T23:41:22.172Z,99536.13
2023-03-30T23:44:11.163Z,99526.44
2023-03-30T23:46:59.935Z,99533.84
2023-03-30T23:49:53.302Z,99527.69
2023-03-30T23:52:42.150Z,99523.97
2023-03-30T23:55:33.737Z,99515.69
2023-03-30T23:58:23.016Z,99520.19
